createdAt,value
2022-08-26T00:02:14.385Z,3.38
2022-08-26T00:04:44.295Z,3.05
2022-08-26T00:07:13.089Z,3.50
2022-08-26T00:09:41.482Z,3.20
2022-08-26T00:12:15.645Z,2.80
2022-08-26T00:14:44.387Z,3.22
2022-08-26T00:17:14.649Z,3.50
2022-08-26T00:19:43.816Z,3.20
2022-08-26T00:22:12.867Z,3.13
2022-08-26T00:24:48.655Z,3.45
2022-08-26T00:27:17.099Z,3.05
2022-08-26T00:29:45.782Z,3.17
2022-08-26T00:32:15.566Z,3.33
2022-08-26T00:34:44.454Z,3.80
2022-08-26T00:37:16.132Z,2.92
2022-08-26T00:39:44.765Z,3.03
2022-08-26T00:42:14.316Z,3.20
2022-08-26T00:44:44.368Z,3.20
2022-08-26T00:47:24.460Z,3.35
2022-08-26T00:49:53.363Z,3.67
2022-08-26T00:52:23.227Z,3.33
2022-08-26T00:55:04.303Z,3.40
2022-08-26T00:57:34.263Z,3.35
2022-08-26T01:00:07.592Z,3.40
2022-08-26T01:02:38.991Z,3.47
2022-08-26T01:05:16.100Z,3.50
2022-08-26T01:07:45.177Z,3.60
2022-08-26T01:10:18.094Z,3.35
2022-08-26T01:12:50.123Z,3.33
2022-08-26T01:15:24.178Z,3.65
2022-08-26T01:17:54.084Z,3.47
2022-08-26T01:20:29.732Z,3.28
2022-08-26T01:23:03.234Z,3.10
2022-08-26T01:25:34.846Z,3.25
2022-08-26T01:28:07.777Z,3.00
2022-08-26T01:30:39.802Z,3.40
2022-08-26T01:33:12.788Z,3.50
2022-08-26T01:35:43.050Z,3.55
2022-08-26T01:38:14.014Z,3.22
2022-08-26T01:40:44.360Z,3.10
2022-08-26T01:43:17.314Z,3.30
2022-08-26T01:45:48.265Z,3.75
2022-08-26T01:48:22.078Z,3.47
2022-08-26T01:50:51.834Z,3.20
2022-08-26T01:53:23.711Z,3.20
2022-08-26T01:55:57.391Z,3.10
2022-08-26T01:58:31.869Z,3.25
2022-08-26T02:01:00.585Z,3.50
2022-08-26T02:03:31.909Z,3.35
2022-08-26T02:06:05.374Z,3.33
2022-08-26T02:08:43.461Z,3.15
2022-08-26T02:11:12.180Z,3.00
2022-08-26T02:13:44.831Z,3.40
2022-08-26T02:16:14.143Z,3.83
2022-08-26T02:18:45.102Z,3.30
2022-08-26T02:21:15.955Z,3.40
2022-08-26T02:23:46.780Z,3.05
2022-08-26T02:26:27.558Z,3.40
2022-08-26T02:29:01.663Z,3.25
2022-08-26T02:31:44.261Z,3.13
2022-08-26T02:34:18.102Z,3.30
2022-08-26T02:36:46.848Z,3.20
2022-08-26T02:39:22.067Z,3.33
2022-08-26T02:41:51.269Z,3.10
2022-08-26T02:44:20.239Z,3.50
2022-08-26T02:46:54.213Z,3.40
2022-08-26T02:49:23.831Z,3.40
2022-08-26T02:51:53.100Z,3.40
2022-08-26T02:54:23.561Z,3.35
2022-08-26T02:56:52.715Z,3.20
2022-08-26T02:59:24.297Z,3.40
2022-08-26T03:01:56.078Z,3.10
2022-08-26T03:04:26.052Z,3.78
2022-08-26T03:06:55.620Z,3.25
2022-08-26T03:09:26.122Z,3.55
2022-08-26T03:11:55.627Z,3.30
2022-08-26T03:14:24.983Z,3.40
2022-08-26T03:16:54.646Z,3.47
2022-08-26T03:19:25.218Z,3.85
2022-08-26T03:21:57.927Z,3.70
2022-08-26T03:24:28.285Z,3.90
2022-08-26T03:26:57.087Z,3.70
2022-08-26T03:29:43.116Z,3.45
2022-08-26T03:32:11.949Z,3.67
2022-08-26T03:34:40.679Z,3.55
2022-08-26T03:37:09.201Z,3.63
2022-08-26T03:39:39.511Z,3.97
2022-08-26T03:42:09.448Z,3.80
2022-08-26T03:44:42.135Z,3.75
2022-08-26T03:47:11.158Z,3.70
2022-08-26T03:49:39.646Z,4.30
2022-08-26T03:52:08.087Z,4.10
2022-08-26T03:54:36.462Z,3.70
2022-08-26T03:57:06.644Z,4.10
2022-08-26T03:59:35.107Z,3.80
2022-08-26T04:02:11.367Z,3.50
2022-08-26T04:04:40.390Z,3.92
2022-08-26T04:07:09.132Z,3.75
2022-08-26T04:09:38.267Z,3.92
2022-08-26T04:12:10.878Z,3.88
2022-08-26T04:14:40.209Z,3.83
2022-08-26T04:17:08.738Z,4.03
2022-08-26T04:19:45.212Z,3.97
2022-08-26T04:22:14.258Z,3.83
2022-08-26T04:24:42.982Z,4.03
2022-08-26T04:27:12.896Z,4.07
2022-08-26T04:29:41.559Z,3.83
2022-08-26T04:32:10.759Z,4.13
2022-08-26T04:34:39.223Z,4.20
2022-08-26T04:37:08.492Z,4.40
2022-08-26T04:39:37.048Z,4.50
2022-08-26T04:42:06.036Z,4.30
2022-08-26T04:44:38.002Z,3.95
2022-08-26T04:47:08.061Z,3.85
2022-08-26T04:49:38.384Z,4.22
2022-08-26T04:52:07.026Z,3.70
2022-08-26T04:54:36.175Z,4.03
2022-08-26T04:57:04.669Z,4.20
2022-08-26T04:59:38.449Z,4.00
2022-08-26T05:02:09.254Z,4.25
2022-08-26T05:04:37.663Z,3.80
2022-08-26T05:07:07.925Z,4.13
2022-08-26T05:09:38.249Z,4.07
2022-08-26T05:12:07.049Z,4.22
2022-08-26T05:14:35.549Z,3.90
2022-08-26T05:17:04.138Z,4.13
2022-08-26T05:19:34.752Z,3.80
2022-08-26T05:22:03.536Z,3.63
2022-08-26T05:24:32.585Z,3.63
2022-08-26T05:27:03.224Z,4.10
2022-08-26T05:29:39.936Z,3.70
2022-08-26T05:32:08.595Z,3.90
2022-08-26T05:34:41.212Z,4.03
2022-08-26T05:37:11.429Z,3.90
2022-08-26T05:39:43.469Z,3.70
2022-08-26T05:42:19.997Z,3.80
2022-08-26T05:44:55.377Z,3.67
2022-08-26T05:47:24.816Z,3.30
2022-08-26T05:49:55.855Z,3.95
2022-08-26T05:52:24.640Z,3.55
2022-08-26T05:54:54.491Z,3.92
2022-08-26T05:57:23.269Z,3.78
2022-08-26T05:59:52.364Z,3.88
2022-08-26T06:02:21.424Z,3.60
2022-08-26T06:04:50.014Z,4.25
2022-08-26T06:07:42.271Z,3.67
2022-08-26T06:10:32.618Z,4.40
2022-08-26T06:13:09.118Z,4.30
2022-08-26T06:15:43.317Z,3.88
2022-08-26T06:18:14.611Z,3.85
2022-08-26T06:20:54.636Z,4.30
2022-08-26T06:23:46.723Z,3.88
2022-08-26T06:26:15.807Z,3.92
2022-08-26T06:28:45.526Z,3.92
2022-08-26T06:31:14.578Z,3.97
2022-08-26T06:33:43.607Z,3.75
2022-08-26T06:36:17.419Z,3.88
2022-08-26T06:38:49.338Z,4.10
2022-08-26T06:41:18.219Z,3.97
2022-08-26T06:43:46.778Z,4.05
2022-08-26T06:46:17.768Z,3.97
2022-08-26T06:48:46.615Z,3.75
2022-08-26T06:51:18.034Z,4.05
2022-08-26T06:53:49.750Z,4.30
2022-08-26T06:56:21.306Z,4.10
2022-08-26T06:58:50.220Z,3.85
2022-08-26T07:01:20.778Z,4.03
2022-08-26T07:03:51.028Z,4.00
2022-08-26T07:06:20.972Z,4.50
2022-08-26T07:09:19.408Z,4.47
2022-08-26T07:11:55.101Z,4.10
2022-08-26T07:14:26.246Z,4.40
2022-08-26T07:16:55.645Z,4.15
2022-08-26T07:19:29.950Z,4.13
2022-08-26T07:22:02.135Z,3.92
2022-08-26T07:24:35.105Z,3.50
2022-08-26T07:27:05.467Z,3.80
2022-08-26T07:29:34.951Z,3.17
2022-08-26T07:32:04.176Z,3.45
2022-08-26T07:34:33.483Z,3.75
2022-08-26T07:37:02.211Z,4.10
2022-08-26T07:39:31.610Z,3.75
2022-08-26T07:42:07.451Z,3.45
2022-08-26T07:44:36.946Z,3.28
2022-08-26T07:47:10.472Z,3.40
2022-08-26T07:49:54.723Z,3.10
2022-08-26T07:52:26.576Z,3.50
2022-08-26T07:54:55.852Z,3.50
2022-08-26T07:57:26.410Z,3.70
2022-08-26T07:59:55.404Z,3.33
2022-08-26T08:02:24.672Z,3.80
2022-08-26T08:04:54.656Z,3.47
2022-08-26T08:07:38.494Z,4.03
2022-08-26T08:10:13.906Z,4.28
2022-08-26T08:12:44.204Z,3.95
2022-08-26T08:15:13.967Z,4.22
2022-08-26T08:17:43.033Z,3.80
2022-08-26T08:20:13.215Z,3.92
2022-08-26T08:22:42.571Z,3.90
2022-08-26T08:25:12.489Z,3.50
2022-08-26T08:27:45.929Z,3.85
2022-08-26T08:30:28.369Z,3.90
2022-08-26T08:32:57.290Z,3.97
2022-08-26T08:35:26.952Z,4.20
2022-08-26T08:37:55.736Z,3.50
2022-08-26T08:40:28.250Z,3.45
2022-08-26T08:43:03.870Z,3.60
2022-08-26T08:45:37.738Z,3.30
2022-08-26T08:48:14.388Z,4.15
2022-08-26T08:54:28.237Z,3.60
2022-08-26T08:57:11.971Z,3.40
2022-08-26T08:59:55.561Z,4.00
2022-08-26T09:02:36.484Z,3.92
2022-08-26T09:05:15.449Z,3.70
2022-08-26T09:07:47.331Z,3.28
2022-08-26T09:10:32.281Z,4.20
2022-08-26T09:13:02.465Z,3.97
2022-08-26T09:15:51.811Z,3.85
2022-08-26T09:18:33.342Z,3.53
2022-08-26T09:21:03.769Z,3.30
2022-08-26T09:23:34.092Z,3.15
2022-08-26T09:26:14.202Z,3.70
2022-08-26T09:28:46.832Z,3.70
2022-08-26T09:31:25.349Z,3.45
2022-08-26T09:34:08.094Z,3.33
2022-08-26T09:36:41.448Z,3.40
2022-08-26T09:39:31.164Z,3.60
2022-08-26T09:42:09.543Z,3.67
2022-08-26T09:44:54.649Z,3.30
2022-08-26T09:47:30.341Z,3.35
2022-08-26T09:50:09.834Z,3.28
2022-08-26T09:52:42.655Z,2.78
2022-08-26T09:55:14.968Z,3.17
2022-08-26T09:57:49.687Z,3.47
2022-08-26T10:00:38.595Z,3.15
2022-08-26T10:03:12.807Z,3.22
2022-08-26T10:05:55.660Z,3.00
2022-08-26T10:08:27.215Z,3.20
2022-08-26T10:10:57.704Z,3.13
2022-08-26T10:13:34.465Z,3.30
2022-08-26T10:16:12.212Z,3.30
2022-08-26T10:18:46.357Z,3.50
2022-08-26T10:21:18.837Z,3.42
2022-08-26T10:23:50.994Z,3.28
2022-08-26T10:26:27.013Z,3.30
2022-08-26T10:29:01.563Z,3.20
2022-08-26T10:31:38.156Z,3.40
2022-08-26T10:34:14.046Z,3.45
2022-08-26T10:37:14.725Z,3.20
2022-08-26T10:39:51.950Z,3.10
2022-08-26T10:42:31.146Z,3.53
2022-08-26T10:45:07.602Z,3.00
2022-08-26T10:47:48.829Z,3.10
2022-08-26T10:50:19.956Z,3.30
2022-08-26T10:53:00.793Z,2.97
2022-08-26T10:55:37.231Z,3.30
2022-08-26T10:58:26.714Z,3.10
2022-08-26T11:01:23.071Z,3.00
2022-08-26T11:03:58.969Z,3.30
2022-08-26T11:06:31.486Z,3.20
2022-08-26T11:09:01.726Z,3.42
2022-08-26T11:11:46.824Z,2.92
2022-08-26T11:14:41.090Z,3.67
2022-08-26T11:18:00.276Z,3.33
2022-08-26T11:20:41.757Z,3.20
2022-08-26T11:23:50.804Z,2.72
2022-08-26T11:26:37.802Z,2.78
2022-08-26T11:29:59.691Z,3.10
2022-08-26T11:32:49.112Z,3.53
2022-08-26T11:35:47.513Z,3.00
2022-08-26T11:38:24.007Z,2.72
2022-08-26T11:41:10.157Z,3.00
2022-08-26T11:43:40.737Z,2.70
2022-08-26T11:46:12.785Z,2.80
2022-08-26T11:48:43.286Z,2.97
2022-08-26T11:51:13.807Z,3.00
2022-08-26T11:53:47.194Z,2.92
2022-08-26T11:56:24.551Z,3.03
2022-08-26T11:58:59.859Z,3.22
2022-08-26T12:01:32.791Z,3.30
2022-08-26T12:04:02.068Z,3.17
2022-08-26T12:06:36.385Z,2.90
2022-08-26T12:09:15.612Z,3.08
2022-08-26T12:11:44.029Z,3.05
2022-08-26T12:14:19.817Z,3.50
2022-08-26T12:16:50.043Z,3.60
2022-08-26T12:19:27.340Z,3.45
2022-08-26T12:22:00.146Z,2.95
2022-08-26T12:24:28.815Z,3.15
2022-08-26T12:27:14.974Z,3.28
2022-08-26T12:29:43.863Z,3.10
2022-08-26T12:32:19.793Z,3.08
2022-08-26T12:34:50.234Z,3.25
2022-08-26T12:37:19.129Z,3.03
2022-08-26T12:39:48.126Z,3.55
2022-08-26T12:42:42.270Z,2.80
2022-08-26T12:45:11.619Z,3.17
2022-08-26T12:47:44.364Z,3.25
2022-08-26T12:50:19.643Z,2.88
2022-08-26T12:52:57.661Z,2.85
2022-08-26T12:55:35.482Z,2.25
2022-08-26T12:58:26.894Z,1.90
2022-08-26T13:00:56.900Z,2.50
2022-08-26T13:03:43.508Z,2.20
2022-08-26T13:06:18.607Z,2.40
2022-08-26T13:08:48.098Z,3.53
2022-08-26T13:11:20.635Z,3.20
2022-08-26T13:13:51.918Z,3.88
2022-08-26T13:16:23.269Z,3.95
2022-08-26T13:18:56.130Z,3.38
2022-08-26T13:21:27.172Z,3.13
2022-08-26T13:23:56.079Z,3.05
2022-08-26T13:26:37.981Z,3.25
2022-08-26T13:29:13.561Z,3.40
2022-08-26T13:31:44.222Z,3.15
2022-08-26T13:34:18.223Z,2.97
2022-08-26T13:36:46.946Z,3.10
2022-08-26T13:39:15.862Z,3.47
2022-08-26T13:41:44.415Z,3.00
2022-08-26T13:44:13.616Z,3.17
2022-08-26T13:46:42.519Z,3.20
2022-08-26T13:49:11.696Z,3.22
2022-08-26T13:51:42.189Z,3.42
2022-08-26T13:54:10.795Z,3.33
2022-08-26T13:56:39.279Z,3.15
2022-08-26T13:59:07.809Z,3.28
2022-08-26T14:01:37.314Z,3.03
2022-08-26T14:04:05.932Z,2.70
2022-08-26T14:06:34.367Z,2.90
2022-08-26T14:09:04.369Z,2.88
2022-08-26T14:11:45.035Z,3.17
2022-08-26T14:14:21.285Z,2.90
2022-08-26T14:16:58.797Z,3.08
2022-08-26T14:19:30.102Z,3.20
2022-08-26T14:22:01.019Z,3.28
2022-08-26T14:24:31.069Z,3.00
2022-08-26T14:26:59.566Z,3.20
2022-08-26T14:29:28.355Z,3.05
2022-08-26T14:31:58.823Z,3.00
2022-08-26T14:34:27.659Z,3.10
2022-08-26T14:36:56.334Z,3.20
2022-08-26T14:39:24.756Z,3.13
2022-08-26T14:41:57.633Z,2.85
2022-08-26T14:44:29.257Z,3.08
2022-08-26T14:46:58.126Z,2.78
2022-08-26T14:49:27.445Z,3.00
2022-08-26T14:51:56.532Z,3.05
2022-08-26T14:54:23.893Z,2.88
2022-08-26T14:56:56.812Z,2.97
2022-08-26T14:59:29.969Z,3.00
2022-08-26T15:02:00.566Z,3.40
2022-08-26T15:04:29.872Z,3.50
2022-08-26T15:06:59.985Z,3.75
2022-08-26T15:09:29.191Z,4.10
2022-08-26T15:11:59.162Z,4.07
2022-08-26T15:14:32.671Z,3.53
2022-08-26T15:17:01.548Z,3.88
2022-08-26T15:19:30.002Z,3.45
2022-08-26T15:21:58.422Z,3.40
2022-08-26T15:24:28.922Z,3.50
2022-08-26T15:27:21.370Z,3.38
2022-08-26T15:29:56.795Z,3.50
2022-08-26T15:32:27.459Z,3.40
2022-08-26T15:35:08.153Z,3.17
2022-08-26T15:37:45.830Z,3.20
2022-08-26T15:40:27.421Z,2.95
2022-08-26T15:43:17.776Z,3.10
2022-08-26T15:45:47.062Z,2.88
2022-08-26T15:48:16.268Z,3.10
2022-08-26T15:50:51.618Z,3.00
2022-08-26T15:53:20.014Z,3.28
2022-08-26T15:55:58.047Z,3.08
2022-08-26T15:58:39.155Z,3.10
2022-08-26T16:01:24.020Z,3.38
2022-08-26T16:04:05.513Z,2.78
2022-08-26T16:06:36.486Z,3.42
2022-08-26T16:09:05.652Z,3.35
2022-08-26T16:11:36.011Z,3.50
2022-08-26T16:14:07.339Z,3.38
2022-08-26T16:16:39.332Z,2.85
2022-08-26T16:19:28.466Z,2.90
2022-08-26T16:21:57.052Z,3.15
2022-08-26T16:24:30.162Z,3.20
2022-08-26T16:27:26.537Z,3.17
2022-08-26T16:29:56.743Z,3.40
2022-08-26T16:32:29.383Z,3.70
2022-08-26T16:34:59.916Z,3.22
2022-08-26T16:37:28.320Z,3.60
2022-08-26T16:39:56.777Z,3.10
2022-08-26T16:42:25.368Z,3.17
2022-08-26T16:44:55.236Z,3.85
2022-08-26T16:47:23.655Z,3.30
2022-08-26T16:49:52.253Z,3.45
2022-08-26T16:52:20.738Z,3.53
2022-08-26T16:54:49.454Z,3.17
2022-08-26T16:57:17.856Z,2.88
2022-08-26T16:59:46.419Z,3.28
2022-08-26T17:02:16.205Z,2.90
2022-08-26T17:04:46.181Z,3.20
2022-08-26T17:07:15.790Z,3.00
2022-08-26T17:09:44.469Z,3.10
2022-08-26T17:12:12.952Z,3.42
2022-08-26T17:14:41.377Z,2.85
2022-08-26T17:17:15.871Z,2.80
2022-08-26T17:23:35.356Z,3.03
2022-08-26T17:26:24.904Z,3.33
2022-08-26T17:28:53.489Z,2.92
2022-08-26T17:34:28.408Z,2.90
2022-08-26T17:36:58.266Z,2.97
2022-08-26T17:39:26.802Z,3.00
2022-08-26T17:42:06.544Z,3.30
2022-08-26T17:44:40.454Z,3.00
2022-08-26T17:47:09.073Z,3.40
2022-08-26T17:49:37.714Z,2.90
2022-08-26T17:52:11.474Z,2.95
2022-08-26T17:54:40.135Z,2.95
2022-08-26T17:57:08.920Z,3.03
2022-08-26T17:59:40.986Z,2.97
2022-08-26T18:02:09.674Z,2.97
2022-08-26T18:04:38.095Z,3.08
2022-08-26T18:07:08.343Z,2.88
2022-08-26T18:09:36.782Z,2.60
2022-08-26T18:12:05.857Z,3.00
2022-08-26T18:14:35.571Z,2.88
2022-08-26T18:17:04.860Z,2.60
2022-08-26T18:19:33.321Z,2.90
2022-08-26T18:22:01.778Z,3.08
2022-08-26T18:24:58.677Z,2.80
2022-08-26T18:27:27.512Z,3.08
2022-08-26T18:29:56.222Z,2.80
2022-08-26T18:32:24.906Z,2.95
2022-08-26T18:34:53.258Z,3.38
2022-08-26T18:37:21.679Z,3.33
2022-08-26T18:39:51.655Z,3.58
2022-08-26T18:42:20.238Z,3.17
2022-08-26T18:44:51.583Z,3.10
2022-08-26T18:47:20.031Z,3.05
2022-08-26T18:49:48.784Z,3.38
2022-08-26T18:52:17.388Z,3.35
2022-08-26T18:54:46.498Z,3.08
2022-08-26T18:57:16.412Z,3.10
2022-08-26T18:59:44.810Z,3.17
2022-08-26T19:02:13.380Z,3.10
2022-08-26T19:04:42.059Z,3.33
2022-08-26T19:07:11.080Z,3.10
2022-08-26T19:09:39.493Z,3.10
2022-08-26T19:12:10.363Z,2.83
2022-08-26T19:14:40.779Z,2.80
2022-08-26T19:17:09.254Z,2.67
2022-08-26T19:19:37.661Z,3.50
2022-08-26T19:22:07.549Z,3.30
2022-08-26T19:24:36.266Z,3.05
2022-08-26T19:27:04.951Z,3.00
2022-08-26T19:29:35.742Z,3.08
2022-08-26T19:32:06.222Z,3.55
2022-08-26T19:34:34.577Z,3.20
2022-08-26T19:37:02.975Z,3.28
2022-08-26T19:39:31.342Z,3.17
2022-08-26T19:42:00.496Z,3.40
2022-08-26T19:44:46.469Z,3.60
2022-08-26T19:47:16.281Z,3.85
2022-08-26T19:49:45.775Z,3.22
2022-08-26T19:52:14.647Z,3.25
2022-08-26T19:54:43.001Z,3.50
2022-08-26T19:57:11.678Z,3.42
2022-08-26T19:59:40.288Z,3.45
2022-08-26T20:02:11.019Z,3.50
2022-08-26T20:04:41.895Z,3.42
2022-08-26T20:07:13.074Z,3.35
2022-08-26T20:09:45.115Z,3.60
2022-08-26T20:12:13.696Z,3.45
2022-08-26T20:14:42.078Z,3.70
2022-08-26T20:17:10.696Z,3.33
2022-08-26T20:19:58.122Z,3.60
2022-08-26T20:22:26.822Z,3.60
2022-08-26T20:24:55.263Z,3.80
2022-08-26T20:27:37.686Z,3.42
2022-08-26T20:30:09.748Z,3.30
2022-08-26T20:32:38.894Z,3.60
2022-08-26T20:35:11.435Z,3.10
2022-08-26T20:37:40.748Z,3.05
2022-08-26T20:40:11.370Z,4.10
2022-08-26T20:42:39.717Z,3.42
2022-08-26T20:45:09.810Z,3.80
2022-08-26T20:47:38.277Z,3.72
2022-08-26T20:50:09.316Z,3.40
2022-08-26T20:52:37.808Z,3.53
2022-08-26T20:55:07.291Z,3.30
2022-08-26T20:57:35.809Z,4.15
2022-08-26T21:00:05.125Z,4.03
2022-08-26T21:02:33.455Z,3.70
2022-08-26T21:05:02.019Z,3.88
2022-08-26T21:07:31.869Z,4.00
2022-08-26T21:10:00.792Z,3.58
2022-08-26T21:12:29.242Z,3.70
2022-08-26T21:14:57.624Z,3.72
2022-08-26T21:17:26.021Z,3.80
2022-08-26T21:19:54.743Z,3.90
2022-08-26T21:22:23.171Z,3.90
2022-08-26T21:24:52.977Z,4.47
2022-08-26T21:27:26.420Z,4.10
2022-08-26T21:29:55.165Z,3.70
2022-08-26T21:32:23.640Z,4.20
2022-08-26T21:34:55.784Z,3.80
2022-08-26T21:37:24.602Z,3.97
2022-08-26T21:39:56.306Z,3.85
2022-08-26T21:42:26.483Z,3.40
2022-08-26T21:44:55.685Z,4.18
2022-08-26T21:47:24.462Z,4.03
2022-08-26T21:49:53.368Z,4.00
2022-08-26T21:52:22.334Z,4.13
2022-08-26T21:54:50.880Z,3.72
2022-08-26T21:57:20.741Z,4.10
2022-08-26T21:59:49.123Z,3.78
2022-08-26T22:02:18.554Z,3.90
2022-08-26T22:05:03.930Z,3.78
2022-08-26T22:08:14.082Z,3.67
2022-08-26T22:10:43.924Z,3.92
2022-08-26T22:13:15.353Z,4.22
2022-08-26T22:15:44.053Z,3.78
2022-08-26T22:18:12.907Z,4.03
2022-08-26T22:20:41.641Z,3.88
2022-08-26T22:23:11.942Z,4.13
2022-08-26T22:25:45.960Z,3.70
2022-08-26T22:28:16.632Z,3.72
2022-08-26T22:30:49.893Z,3.80
2022-08-26T22:33:21.794Z,4.00
2022-08-26T22:35:53.096Z,4.00
2022-08-26T22:38:24.095Z,3.83
2022-08-26T22:40:57.051Z,4.15
2022-08-26T22:43:28.968Z,3.92
2022-08-26T22:45:58.430Z,3.92
2022-08-26T22:48:28.030Z,4.32
2022-08-26T22:51:00.300Z,3.92
2022-08-26T22:53:29.195Z,4.10
2022-08-26T22:56:02.236Z,3.92
2022-08-26T22:58:33.141Z,4.03
2022-08-26T23:01:01.929Z,3.63
2022-08-26T23:03:31.347Z,3.67
2022-08-26T23:06:00.576Z,4.00
2022-08-26T23:08:29.056Z,4.18
2022-08-26T23:10:57.526Z,3.95
2022-08-26T23:13:25.945Z,3.55
2022-08-26T23:16:02.726Z,3.50
2022-08-26T23:18:31.378Z,4.30
2022-08-26T23:20:59.736Z,3.80
2022-08-26T23:23:28.683Z,3.83
2022-08-26T23:25:57.262Z,4.03
2022-08-26T23:28:26.548Z,3.95
2022-08-26T23:30:55.181Z,3.53
2022-08-26T23:33:45.029Z,4.13
2022-08-26T23:36:17.037Z,4.05
2022-08-26T23:38:52.508Z,3.95
2022-08-26T23:41:22.932Z,3.30
2022-08-26T23:43:52.651Z,4.03
2022-08-26T23:46:22.492Z,4.03
2022-08-26T23:48:52.457Z,3.85
2022-08-26T23:51:38.616Z,3.97
2022-08-26T23:54:07.816Z,3.92
2022-08-26T23:56:36.689Z,3.97
2022-08-26T23:59:05.426Z,4.13
